createdAt,value
2022-10-05T00:02:51.801Z,21.48
2022-10-05T00:05:55.480Z,23.48
2022-10-05T00:09:01.090Z,21.30
2022-10-05T00:12:18.876Z,18.17
2022-10-05T00:15:24.194Z,21.17
2022-10-05T00:18:28.106Z,23.63
2022-10-05T00:21:31.396Z,22.98
2022-10-05T00:24:34.284Z,25.30
2022-10-05T00:27:39.671Z,16.80
2022-10-05T00:30:42.634Z,17.33
2022-10-05T00:33:46.244Z,23.98
2022-10-05T00:36:49.489Z,22.05
2022-10-05T00:39:53.207Z,18.33
2022-10-05T00:43:25.990Z,24.35
2022-10-05T00:46:38.315Z,17.05
2022-10-05T00:49:48.742Z,14.88
2022-10-05T00:53:01.564Z,22.48
2022-10-05T00:56:16.399Z,26.65
2022-10-05T00:59:47.455Z,23.35
2022-10-05T01:03:07.470Z,25.00
2022-10-05T01:06:25.136Z,28.73
2022-10-05T01:09:31.939Z,28.05
2022-10-05T01:12:55.254Z,27.80
2022-10-05T01:16:05.601Z,17.52
2022-10-05T01:19:56.503Z,35.03
2022-10-05T01:23:24.555Z,24.48
2022-10-05T01:30:01.057Z,25.98
2022-10-05T01:33:23.511Z,15.32
2022-10-05T01:36:49.421Z,17.67
2022-10-05T01:40:09.946Z,17.88
2022-10-05T01:43:28.609Z,18.70
2022-10-05T01:47:14.709Z,11.82
2022-10-05T01:50:37.150Z,24.70
2022-10-05T01:54:04.428Z,14.20
2022-10-05T01:57:24.824Z,10.38
2022-10-05T02:00:30.586Z,9.50
2022-10-05T02:03:43.256Z,11.70
2022-10-05T02:06:49.780Z,9.82
2022-10-05T02:10:00.642Z,7.53
2022-10-05T02:13:45.228Z,12.73
2022-10-05T02:16:52.453Z,8.63
2022-10-05T02:20:11.939Z,11.40
2022-10-05T02:23:28.234Z,7.30
2022-10-05T02:26:34.975Z,9.48
2022-10-05T02:29:46.730Z,9.05
2022-10-05T02:33:07.289Z,6.32
2022-10-05T02:36:37.903Z,7.53
2022-10-05T02:40:00.561Z,11.07
2022-10-05T02:43:39.471Z,7.88
2022-10-05T02:47:03.699Z,8.55
2022-10-05T02:50:25.443Z,12.23
2022-10-05T02:53:41.714Z,16.63
2022-10-05T02:56:52.793Z,12.30
2022-10-05T03:00:14.714Z,8.73
2022-10-05T03:03:41.358Z,8.65
2022-10-05T03:07:12.136Z,9.15
2022-10-05T03:10:45.674Z,6.95
2022-10-05T03:14:19.217Z,19.92
2022-10-05T03:17:42.122Z,7.85
2022-10-05T03:21:02.189Z,11.82
2022-10-05T03:24:15.442Z,5.68
2022-10-05T03:27:34.090Z,8.75
2022-10-05T03:31:00.470Z,8.13
2022-10-05T03:34:30.431Z,10.25
2022-10-05T03:38:04.976Z,8.77
2022-10-05T03:41:36.191Z,11.93
2022-10-05T03:45:06.240Z,7.88
2022-10-05T03:48:15.909Z,7.10
2022-10-05T03:51:35.490Z,8.98
2022-10-05T03:54:50.066Z,10.90
2022-10-05T03:57:59.438Z,7.80
2022-10-05T04:01:11.418Z,8.93
2022-10-05T04:04:25.525Z,8.60
2022-10-05T04:07:39.815Z,7.10
2022-10-05T04:10:53.022Z,8.85
2022-10-05T04:14:08.843Z,7.50
2022-10-05T04:17:32.187Z,4.30
2022-10-05T04:20:53.673Z,3.00
2022-10-05T04:24:12.084Z,8.60
2022-10-05T04:27:29.799Z,2.03
2022-10-05T04:30:38.680Z,3.80
2022-10-05T04:33:48.036Z,5.13
2022-10-05T04:37:00.615Z,5.63
2022-10-05T04:40:46.691Z,3.58
2022-10-05T04:43:50.147Z,2.22
2022-10-05T04:47:40.182Z,3.42
2022-10-05T04:50:58.066Z,5.05
2022-10-05T04:57:14.814Z,4.03
2022-10-05T05:00:44.692Z,4.15
2022-10-05T05:07:56.585Z,4.43
2022-10-05T05:11:16.820Z,4.95
2022-10-05T05:14:53.219Z,3.28
2022-10-05T05:18:08.484Z,2.92
2022-10-05T05:21:50.546Z,3.67
2022-10-05T05:25:00.458Z,6.05
2022-10-05T05:28:42.707Z,5.10
2022-10-05T05:32:00.744Z,3.85
2022-10-05T05:35:24.550Z,4.57
2022-10-05T05:38:46.564Z,2.45
2022-10-05T05:42:14.031Z,3.25
2022-10-05T05:45:29.610Z,6.00
2022-10-05T05:48:48.274Z,9.30
2022-10-05T05:52:20.450Z,3.10
2022-10-05T05:55:35.158Z,3.22
2022-10-05T05:58:59.198Z,5.90
2022-10-05T06:02:13.020Z,2.80
2022-10-05T06:05:42.758Z,2.47
2022-10-05T06:08:58.847Z,5.70
2022-10-05T06:12:28.166Z,5.90
2022-10-05T06:15:37.089Z,4.90
2022-10-05T06:18:49.595Z,2.78
2022-10-05T06:22:20.747Z,7.05
2022-10-05T06:25:38.366Z,2.47
2022-10-05T06:28:43.399Z,2.22
2022-10-05T06:32:02.627Z,4.75
2022-10-05T06:35:32.241Z,4.18
2022-10-05T06:38:50.666Z,8.63
2022-10-05T06:42:10.358Z,4.65
2022-10-05T06:46:00.243Z,2.63
2022-10-05T06:49:51.301Z,3.22
2022-10-05T06:53:32.758Z,4.63
2022-10-05T06:56:47.581Z,8.73
2022-10-05T06:59:57.961Z,3.67
2022-10-05T07:03:25.512Z,2.80
2022-10-05T07:06:45.823Z,2.72
2022-10-05T07:09:59.197Z,3.45
2022-10-05T07:13:31.730Z,4.80
2022-10-05T07:16:46.567Z,5.10
2022-10-05T07:20:15.035Z,9.68
2022-10-05T07:23:52.284Z,4.43
2022-10-05T07:27:09.074Z,5.65
2022-10-05T07:30:15.680Z,2.03
2022-10-05T07:33:41.059Z,5.13
2022-10-05T07:37:23.593Z,3.33
2022-10-05T07:40:43.318Z,3.88
2022-10-05T07:44:02.468Z,3.15
2022-10-05T07:47:45.697Z,2.53
2022-10-05T07:54:24.642Z,4.15
2022-10-05T07:57:54.403Z,1.98
2022-10-05T08:01:10.886Z,5.13
2022-10-05T08:04:41.602Z,5.03
2022-10-05T08:08:33.500Z,9.77
2022-10-05T08:11:52.938Z,11.00
2022-10-05T08:15:02.798Z,11.25
2022-10-05T08:18:19.937Z,4.13
2022-10-05T08:21:53.682Z,38.88
2022-10-05T08:25:04.282Z,4.22
2022-10-05T08:28:47.657Z,6.75
2022-10-05T08:31:56.590Z,6.22
2022-10-05T08:35:44.959Z,5.97
2022-10-05T08:38:51.150Z,5.20
2022-10-05T08:42:10.367Z,2.92
2022-10-05T08:45:16.811Z,1.83
2022-10-05T08:48:59.839Z,9.18
2022-10-05T08:52:37.856Z,4.45
2022-10-05T08:55:58.223Z,3.92
2022-10-05T08:59:05.585Z,3.53
2022-10-05T09:02:30.792Z,5.72
2022-10-05T09:05:59.449Z,8.38
2022-10-05T09:13:12.373Z,5.97
2022-10-05T09:16:50.780Z,4.22
2022-10-05T09:20:57.035Z,6.18
2022-10-05T09:24:15.814Z,7.83
2022-10-05T09:27:20.797Z,4.70
2022-10-05T09:30:42.892Z,6.85
2022-10-05T09:34:23.973Z,6.88
2022-10-05T09:37:40.622Z,8.07
2022-10-05T09:41:14.308Z,7.70
2022-10-05T09:44:54.781Z,8.65
2022-10-05T09:48:39.880Z,6.13
2022-10-05T09:52:07.151Z,16.02
2022-10-05T09:55:40.913Z,10.85
2022-10-05T09:59:44.392Z,12.73
2022-10-05T10:03:32.950Z,9.07
2022-10-05T10:06:49.691Z,6.68
2022-10-05T10:10:22.918Z,7.57
2022-10-05T10:13:47.622Z,13.70
2022-10-05T10:17:29.546Z,6.13
2022-10-05T10:20:42.087Z,7.47
2022-10-05T10:23:52.315Z,8.77
2022-10-05T10:27:28.145Z,10.50
2022-10-05T10:30:37.794Z,13.15
2022-10-05T10:33:59.499Z,6.75
2022-10-05T10:37:12.199Z,8.02
2022-10-05T10:41:11.388Z,8.85
2022-10-05T10:44:39.097Z,6.75
2022-10-05T10:47:53.344Z,10.40
2022-10-05T10:51:45.177Z,14.65
2022-10-05T10:55:22.917Z,16.52
2022-10-05T10:58:36.196Z,18.90
2022-10-05T11:01:55.028Z,24.50
2022-10-05T11:05:48.948Z,20.20
2022-10-05T11:09:27.822Z,21.05
2022-10-05T11:16:59.201Z,11.82
2022-10-05T11:20:10.385Z,9.80
2022-10-05T11:23:38.732Z,14.77
2022-10-05T11:27:01.338Z,6.60
2022-10-05T11:30:18.221Z,5.20
2022-10-05T11:33:26.133Z,10.73
2022-10-05T11:36:45.841Z,6.37
2022-10-05T11:40:03.951Z,12.93
2022-10-05T11:43:35.603Z,8.98
2022-10-05T11:46:54.452Z,7.97
2022-10-05T11:50:06.397Z,13.55
2022-10-05T11:53:25.976Z,8.75
2022-10-05T11:56:40.632Z,10.88
2022-10-05T12:00:03.404Z,9.77
2022-10-05T12:03:55.174Z,15.20
2022-10-05T12:07:15.282Z,13.90
2022-10-05T12:10:49.863Z,19.45
2022-10-05T12:14:10.232Z,19.55
2022-10-05T12:17:33.346Z,13.20
2022-10-05T12:20:55.834Z,12.35
2022-10-05T12:24:28.183Z,13.10
2022-10-05T12:27:47.141Z,14.65
2022-10-05T12:31:05.757Z,15.85
2022-10-05T12:34:56.568Z,13.52
2022-10-05T12:38:52.420Z,12.65
2022-10-05T12:42:30.746Z,16.77
2022-10-05T12:45:47.376Z,15.73
2022-10-05T12:49:17.723Z,17.75
2022-10-05T12:52:39.349Z,19.23
2022-10-05T12:56:02.427Z,17.52
2022-10-05T12:59:34.215Z,9.60
2022-10-05T13:02:56.291Z,12.00
2022-10-05T13:06:09.689Z,14.75
2022-10-05T13:09:40.335Z,9.98
2022-10-05T13:13:03.446Z,12.05
2022-10-05T13:16:37.456Z,9.88
2022-10-05T13:19:45.613Z,13.18
2022-10-05T13:22:57.446Z,11.02
2022-10-05T13:26:17.772Z,14.15
2022-10-05T13:29:26.501Z,11.20
2022-10-05T13:32:38.834Z,12.52
2022-10-05T13:35:47.613Z,19.58
2022-10-05T13:39:20.673Z,11.20
2022-10-05T13:42:53.633Z,22.25
2022-10-05T13:46:13.152Z,19.35
2022-10-05T13:49:34.075Z,9.90
2022-10-05T13:52:54.326Z,9.82
2022-10-05T13:56:02.833Z,6.68
2022-10-05T13:59:31.227Z,11.75
2022-10-05T14:02:42.556Z,10.60
2022-10-05T14:05:59.909Z,7.63
2022-10-05T14:09:05.395Z,7.53
2022-10-05T14:12:19.827Z,8.75
2022-10-05T14:15:42.090Z,7.72
2022-10-05T14:19:09.918Z,7.85
2022-10-05T14:22:18.030Z,7.88
2022-10-05T14:25:21.855Z,5.15
2022-10-05T14:28:40.329Z,17.27
2022-10-05T14:32:02.045Z,11.63
2022-10-05T14:35:14.755Z,11.43
2022-10-05T14:38:30.212Z,9.23
2022-10-05T14:41:38.506Z,9.27
2022-10-05T14:48:12.476Z,4.85
2022-10-05T14:51:32.449Z,7.40
2022-10-05T14:54:42.234Z,8.35
2022-10-05T14:57:59.016Z,7.75
2022-10-05T15:01:23.866Z,5.53
2022-10-05T15:04:45.246Z,6.07
2022-10-05T15:07:50.966Z,10.13
2022-10-05T15:11:02.213Z,7.80
2022-10-05T15:14:17.962Z,15.10
2022-10-05T15:17:29.019Z,7.88
2022-10-05T15:21:13.587Z,7.57
2022-10-05T15:24:21.079Z,11.30
2022-10-05T15:27:50.418Z,9.82
2022-10-05T15:31:18.482Z,11.70
2022-10-05T15:34:31.097Z,4.93
2022-10-05T15:38:09.632Z,5.55
2022-10-05T15:41:21.522Z,7.00
2022-10-05T15:45:14.182Z,12.10
2022-10-05T15:48:29.948Z,13.55
2022-10-05T15:51:52.224Z,9.23
2022-10-05T15:55:02.376Z,7.72
2022-10-05T15:58:38.284Z,10.77
2022-10-05T16:02:06.740Z,7.85
2022-10-05T16:05:50.520Z,6.47
2022-10-05T16:09:22.397Z,6.95
2022-10-05T16:12:55.272Z,8.25
2022-10-05T16:16:38.541Z,10.82
2022-10-05T16:20:04.013Z,9.48
2022-10-05T16:23:13.369Z,6.30
2022-10-05T16:26:39.964Z,7.63
2022-10-05T16:29:54.758Z,7.05
2022-10-05T16:33:15.677Z,6.70
2022-10-05T16:36:37.596Z,3.63
2022-10-05T16:39:57.922Z,4.90
2022-10-05T16:43:40.788Z,4.78
2022-10-05T16:46:53.762Z,5.25
2022-10-05T16:50:23.611Z,7.35
2022-10-05T16:53:33.746Z,8.27
2022-10-05T16:56:44.828Z,8.52
2022-10-05T17:00:16.300Z,7.68
2022-10-05T17:03:22.753Z,6.47
2022-10-05T17:07:11.653Z,5.65
2022-10-05T17:10:54.745Z,5.60
2022-10-05T17:14:27.432Z,4.90
2022-10-05T17:17:58.399Z,4.95
2022-10-05T17:21:22.366Z,6.55
2022-10-05T17:24:47.935Z,6.40
2022-10-05T17:28:13.812Z,5.13
2022-10-05T17:31:26.455Z,5.07
2022-10-05T17:34:35.360Z,6.38
2022-10-05T17:37:41.437Z,4.35
2022-10-05T17:41:12.698Z,9.40
2022-10-05T17:44:21.721Z,14.60
2022-10-05T17:48:02.052Z,8.05
2022-10-05T17:51:46.930Z,7.70
2022-10-05T17:55:09.124Z,6.20
2022-10-05T17:58:25.355Z,6.78
2022-10-05T18:01:34.790Z,13.30
2022-10-05T18:04:42.922Z,10.95
2022-10-05T18:07:49.496Z,14.95
2022-10-05T18:11:36.003Z,5.57
2022-10-05T18:15:06.950Z,4.93
2022-10-05T18:18:32.689Z,3.75
2022-10-05T18:21:38.876Z,5.20
2022-10-05T18:25:06.547Z,3.88
2022-10-05T18:31:39.546Z,3.90
2022-10-05T18:35:29.129Z,2.55
2022-10-05T18:38:35.712Z,4.00
2022-10-05T18:42:12.627Z,5.15
2022-10-05T18:48:36.456Z,3.95
2022-10-05T18:51:43.021Z,5.35
2022-10-05T18:55:18.075Z,15.93
2022-10-05T18:58:53.277Z,7.25
2022-10-05T19:02:09.120Z,9.10
2022-10-05T19:05:45.921Z,6.45
2022-10-05T19:09:21.932Z,7.78
2022-10-05T19:12:53.454Z,5.10
2022-10-05T19:16:10.203Z,4.88
2022-10-05T19:19:33.271Z,6.80
2022-10-05T19:22:37.868Z,7.13
2022-10-05T19:26:03.947Z,8.32
2022-10-05T19:29:28.045Z,4.93
2022-10-05T19:32:49.601Z,7.43
2022-10-05T19:36:09.494Z,9.02
2022-10-05T19:39:36.680Z,9.60
2022-10-05T19:42:55.849Z,6.47
2022-10-05T19:46:16.321Z,7.45
2022-10-05T19:49:43.878Z,5.32
2022-10-05T19:52:53.055Z,6.35
2022-10-05T19:55:57.027Z,8.02
2022-10-05T19:59:14.163Z,10.80
2022-10-05T20:02:18.025Z,10.93
2022-10-05T20:05:22.047Z,7.90
2022-10-05T20:08:32.195Z,7.95
2022-10-05T20:11:50.364Z,5.35
2022-10-05T20:19:02.006Z,7.82
2022-10-05T20:22:30.279Z,3.28
2022-10-05T20:25:37.990Z,5.55
2022-10-05T20:28:41.870Z,8.07
2022-10-05T20:31:46.162Z,5.28
2022-10-05T20:34:51.724Z,6.15
2022-10-05T20:37:59.860Z,3.90
2022-10-05T20:41:03.173Z,7.38
2022-10-05T20:44:06.908Z,5.10
2022-10-05T20:47:10.822Z,7.38
2022-10-05T20:50:14.822Z,10.00
2022-10-05T20:53:17.931Z,8.10
2022-10-05T20:56:21.964Z,9.43
2022-10-05T20:59:26.943Z,11.27
2022-10-05T21:02:30.563Z,8.07
2022-10-05T21:05:34.737Z,6.78
2022-10-05T21:08:38.910Z,7.75
2022-10-05T21:11:46.831Z,7.13
2022-10-05T21:14:53.265Z,3.90
2022-10-05T21:17:57.318Z,6.20
2022-10-05T21:21:02.316Z,5.55
2022-10-05T21:24:07.434Z,5.28
2022-10-05T21:27:11.203Z,6.60
2022-10-05T21:30:15.014Z,6.60
2022-10-05T21:33:19.067Z,4.82
2022-10-05T21:36:24.723Z,6.90
2022-10-05T21:39:28.022Z,7.03
2022-10-05T21:42:31.422Z,7.88
2022-10-05T21:45:35.533Z,9.20
2022-10-05T21:48:40.674Z,4.05
2022-10-05T21:51:45.440Z,6.40
2022-10-05T21:54:49.855Z,4.15
2022-10-05T21:57:53.701Z,6.78
2022-10-05T22:00:57.315Z,5.60
2022-10-05T22:04:01.894Z,7.55
2022-10-05T22:07:20.237Z,11.20
2022-10-05T22:10:24.983Z,9.75
2022-10-05T22:13:28.877Z,5.45
2022-10-05T22:16:39.923Z,20.23
2022-10-05T22:19:44.358Z,18.50
2022-10-05T22:22:49.308Z,6.40
2022-10-05T22:25:54.277Z,13.98
2022-10-05T22:28:57.969Z,16.33
2022-10-05T22:32:02.440Z,19.27
2022-10-05T22:35:11.333Z,20.27
2022-10-05T22:44:56.768Z,14.05
2022-10-05T22:48:05.764Z,14.05
2022-10-05T22:51:11.948Z,14.30
2022-10-05T22:54:17.169Z,10.40
2022-10-05T22:57:23.304Z,5.25
2022-10-05T23:00:40.367Z,8.55
2022-10-05T23:03:51.356Z,15.48
2022-10-05T23:06:56.607Z,8.32
2022-10-05T23:10:01.476Z,10.70
2022-10-05T23:13:05.839Z,9.57
2022-10-05T23:16:19.237Z,15.55
2022-10-05T23:19:24.834Z,14.65
2022-10-05T23:22:29.748Z,12.77
2022-10-05T23:25:33.990Z,10.27
2022-10-05T23:28:41.028Z,15.50
2022-10-05T23:31:44.713Z,11.43
2022-10-05T23:34:49.937Z,9.55
2022-10-05T23:37:53.766Z,8.07
2022-10-05T23:41:02.109Z,11.63
2022-10-05T23:44:05.984Z,19.73
2022-10-05T23:47:09.986Z,16.55
2022-10-05T23:50:14.912Z,24.55
2022-10-05T23:53:19.719Z,12.85
2022-10-05T23:56:24.165Z,17.48
2022-10-05T23:59:28.565Z,14.63
